Time;durP1;ratioP1;P1;durP2;ratioP2;P2;SDS_P1;SDS_P2;PMS_P1;PMS_P2;Temp;Humidity;BMP_temperature;BMP_pressure;BME280_temperature;BME280_humidity;BME280_pressure;Samples;Min_cycle;Max_cycle;Signal;HPM_P1;HPM_P2
2021/10/26 00:01:18;;;;;;;0.43;0.43;;;10.40;99.90;;;;;;5053632;28;20035;-67
2021/10/26 00:03:44;;;;;;;0.57;0.57;;;10.30;99.90;;;;;;5053782;28;20029;-67
2021/10/26 00:06:10;;;;;;;11.85;0.70;;;10.30;99.90;;;;;;5053601;28;20035;-67
2021/10/26 00:08:36;;;;;;;4.05;0.80;;;10.30;99.90;;;;;;5053902;28;20470;-67
2021/10/26 00:11:03;;;;;;;0.00;0.00;;;10.30;99.90;;;;;;5053379;28;20037;-67
2021/10/26 00:13:29;;;;;;;1.55;0.90;;;10.40;99.90;;;;;;5053761;28;20132;-65
2021/10/26 00:15:55;;;;;;;0.00;0.00;;;10.40;99.90;;;;;;5052169;28;20049;-66
2021/10/26 00:18:21;;;;;;;0.80;0.70;;;10.40;99.90;;;;;;5053769;28;20117;-66
2021/10/26 00:20:47;;;;;;;0.40;0.40;;;10.50;99.90;;;;;;5052870;28;20041;-66
2021/10/26 00:23:13;;;;;;;0.40;0.40;;;10.50;99.90;;;;;;5052154;28;20063;-66
2021/10/26 00:25:39;;;;;;;0.38;0.38;;;10.40;99.90;;;;;;5053366;28;20037;-66
2021/10/26 00:28:05;;;;;;;0.40;0.40;;;10.40;99.90;;;;;;5053347;28;20107;-66
2021/10/26 00:30:31;;;;;;;0.68;0.52;;;10.40;99.90;;;;;;5053487;28;20508;-66
2021/10/26 00:32:57;;;;;;;0.17;0.13;;;10.40;99.90;;;;;;5051853;28;20159;-66
2021/10/26 00:35:28;;;;;;;1.85;1.63;;;10.40;99.90;;;;;;5052183;28;20037;-66
2021/10/26 00:38:01;;;;;;;4.22;2.28;;;10.30;99.90;;;;;;5052883;28;20033;-66
2021/10/26 00:40:28;;;;;;;1.65;1.55;;;10.30;99.90;;;;;;5051854;28;20478;-66
2021/10/26 00:42:54;;;;;;;0.95;0.65;;;10.40;99.90;;;;;;5051487;28;20045;-66
2021/10/26 00:45:20;;;;;;;0.75;0.73;;;10.40;99.90;;;;;;5052975;28;20039;-66
2021/10/26 00:47:47;;;;;;;0.40;0.40;;;10.30;99.90;;;;;;5051537;28;20533;-66
2021/10/26 00:50:14;;;;;;;1.45;1.25;;;10.30;99.90;;;;;;5053174;28;20071;-66
2021/10/26 00:52:43;;;;;;;0.43;0.43;;;10.30;99.90;;;;;;5051521;28;20393;-66
2021/10/26 00:55:10;;;;;;;0.28;0.25;;;10.30;99.90;;;;;;5052995;28;20061;-66
2021/10/26 00:57:35;;;;;;;1.75;0.88;;;10.20;99.90;;;;;;5052640;28;20490;-66
2021/10/26 01:00:07;;;;;;;0.57;0.57;;;10.10;99.90;;;;;;5051542;28;20029;-66
2021/10/26 01:02:33;;;;;;;1.00;1.00;;;10.10;99.90;;;;;;5052568;28;20029;-66
2021/10/26 01:04:59;;;;;;;0.43;0.43;;;10.10;99.90;;;;;;5052513;28;20115;-66
2021/10/26 01:07:25;;;;;;;0.63;0.63;;;10.00;99.90;;;;;;5052744;28;20108;-66
2021/10/26 01:09:51;;;;;;;0.10;0.10;;;10.00;99.90;;;;;;5051550;28;20025;-66
2021/10/26 01:12:17;;;;;;;0.95;0.52;;;10.00;99.90;;;;;;5052666;28;20446;-66
2021/10/26 01:14:42;;;;;;;0.80;0.80;;;9.90;99.90;;;;;;5052438;28;20033;-66
2021/10/26 01:17:11;;;;;;;2.22;0.95;;;9.80;99.90;;;;;;5051406;28;20398;-66
2021/10/26 01:19:50;;;;;;;0.25;0.25;;;9.80;99.90;;;;;;5050863;28;20029;-66
2021/10/26 01:22:19;;;;;;;0.60;0.60;;;9.80;99.90;;;;;;5052266;28;20036;-66
2021/10/26 01:24:46;;;;;;;0.32;0.32;;;9.80;99.90;;;;;;5050943;28;20040;-66
2021/10/26 01:27:14;;;;;;;0.00;0.00;;;9.80;99.90;;;;;;5052393;28;20131;-66
2021/10/26 01:29:40;;;;;;;0.43;0.43;;;9.80;99.90;;;;;;5052065;28;20029;-66
2021/10/26 01:32:10;;;;;;;0.38;0.38;;;9.80;99.90;;;;;;5051989;28;20076;-66
2021/10/26 01:34:36;;;;;;;0.10;0.10;;;9.90;99.90;;;;;;5052163;28;20120;-66
2021/10/26 01:37:05;;;;;;;0.15;0.13;;;9.90;99.90;;;;;;5052301;28;20040;-66
2021/10/26 01:39:31;;;;;;;0.50;0.40;;;10.00;99.90;;;;;;5051062;28;20534;-66
2021/10/26 01:41:58;;;;;;;0.10;0.10;;;10.00;99.90;;;;;;5051088;28;20163;-66
2021/10/26 01:44:25;;;;;;;1.27;1.20;;;10.10;99.90;;;;;;5052151;28;20432;-65
2021/10/26 01:46:51;;;;;;;0.73;0.65;;;10.00;99.90;;;;;;5052162;28;20443;-65
2021/10/26 01:49:19;;;;;;;0.38;0.38;;;10.00;99.90;;;;;;5052076;28;20025;-65
2021/10/26 01:51:46;;;;;;;1.27;1.25;;;10.10;99.90;;;;;;5051844;28;20033;-66
2021/10/26 01:54:13;;;;;;;0.38;0.38;;;10.10;99.90;;;;;;5054366;28;20040;-66
2021/10/26 01:56:41;;;;;;;3.85;1.73;;;10.10;99.90;;;;;;5055239;28;20036;-66
2021/10/26 01:59:07;;;;;;;0.10;0.10;;;10.10;99.90;;;;;;5055905;28;20435;-66
2021/10/26 02:01:33;;;;;;;0.93;0.40;;;10.10;99.90;;;;;;5054701;28;20025;-66
2021/10/26 02:03:58;;;;;;;2.08;1.88;;;10.10;99.90;;;;;;5055851;28;20032;-66
2021/10/26 02:06:24;;;;;;;0.35;0.35;;;10.10;99.90;;;;;;5056243;28;20028;-66
2021/10/26 02:08:50;;;;;;;0.20;0.20;;;10.10;99.90;;;;;;5054590;28;20083;-66
2021/10/26 02:11:16;;;;;;;0.52;0.52;;;10.10;99.90;;;;;;5054854;28;20047;-66
2021/10/26 02:13:42;;;;;;;2.42;1.65;;;10.20;99.90;;;;;;5055745;28;20034;-66
2021/10/26 02:16:08;;;;;;;0.38;0.38;;;10.10;99.90;;;;;;5055668;28;20535;-66
2021/10/26 02:18:34;;;;;;;0.10;0.10;;;10.10;99.90;;;;;;5055526;28;20032;-66
2021/10/26 02:21:00;;;;;;;0.93;0.93;;;10.10;99.90;;;;;;5054135;28;20056;-66
2021/10/26 02:23:26;;;;;;;0.15;0.13;;;10.10;99.90;;;;;;5055528;28;20063;-66
2021/10/26 02:25:52;;;;;;;1.08;0.95;;;10.10;99.90;;;;;;5055379;28;20099;-65
2021/10/26 02:28:19;;;;;;;2.20;2.00;;;10.10;99.90;;;;;;5054556;28;20112;-65
2021/10/26 02:30:45;;;;;;;0.40;0.40;;;10.10;99.90;;;;;;5055469;28;20086;-65
2021/10/26 02:33:11;;;;;;;0.05;0.05;;;10.10;99.90;;;;;;5055319;28;20033;-66
2021/10/26 02:35:37;;;;;;;1.98;1.85;;;10.10;99.90;;;;;;5054479;28;20029;-65
2021/10/26 02:38:04;;;;;;;0.52;0.52;;;10.20;99.90;;;;;;5055228;28;20221;-66
2021/10/26 02:40:30;;;;;;;1.48;1.38;;;10.20;99.90;;;;;;5054327;28;20033;-66
2021/10/26 02:42:56;;;;;;;0.68;0.68;;;10.20;99.90;;;;;;5053736;28;20036;-67
2021/10/26 02:45:27;;;;;;;0.90;0.90;;;10.20;99.90;;;;;;5055512;28;20037;-66
2021/10/26 02:47:53;;;;;;;0.28;0.28;;;10.20;99.90;;;;;;5054975;28;20382;-67
2021/10/26 02:50:20;;;;;;;4.45;1.38;;;10.30;99.90;;;;;;5054220;28;20510;-67
2021/10/26 02:52:46;;;;;;;0.65;0.65;;;10.30;99.90;;;;;;5054809;28;20520;-67
2021/10/26 02:55:12;;;;;;;0.10;0.10;;;10.30;99.90;;;;;;5054051;28;20040;-67
2021/10/26 02:57:38;;;;;;;1.80;1.55;;;10.30;99.90;;;;;;5055292;28;20036;-67
2021/10/26 03:00:11;;;;;;;1.95;1.65;;;10.30;99.90;;;;;;5054698;28;20033;-67
2021/10/26 03:02:38;;;;;;;3.30;0.93;;;10.20;99.90;;;;;;5055211;28;20047;-66
2021/10/26 03:05:05;;;;;;;0.40;0.40;;;10.30;99.90;;;;;;5053398;28;20055;-67
2021/10/26 03:07:41;;;;;;;0.30;0.30;;;10.20;99.90;;;;;;5054894;28;20037;-67
2021/10/26 03:10:09;;;;;;;0.00;0.00;;;10.20;99.90;;;;;;5053505;28;20086;-66
2021/10/26 03:12:35;;;;;;;0.30;0.30;;;10.20;99.90;;;;;;5053524;28;20041;-66
2021/10/26 03:15:06;;;;;;;0.20;0.20;;;10.20;99.90;;;;;;5054728;28;20048;-66
2021/10/26 03:17:32;;;;;;;0.10;0.10;;;10.20;99.90;;;;;;5054668;28;20033;-66
2021/10/26 03:19:58;;;;;;;0.60;0.60;;;10.30;99.90;;;;;;5054204;28;20047;-66
2021/10/26 03:22:23;;;;;;;0.38;0.38;;;10.30;99.90;;;;;;5054426;28;20052;-66
2021/10/26 03:24:50;;;;;;;0.43;0.35;;;10.30;99.90;;;;;;5054452;28;20036;-66
2021/10/26 03:27:15;;;;;;;1.02;1.02;;;10.30;99.90;;;;;;5054427;28;20086;-67
2021/10/26 03:29:41;;;;;;;0.00;0.00;;;10.40;99.90;;;;;;5069754;28;20025;-66
2021/10/26 03:32:07;;;;;;;1.10;1.08;;;10.30;99.90;;;;;;5054427;28;20493;-66
2021/10/26 03:34:33;;;;;;;0.20;0.20;;;10.30;99.90;;;;;;5054286;28;20033;-66
2021/10/26 03:37:00;;;;;;;0.00;0.00;;;10.30;99.90;;;;;;5054241;28;20474;-67
2021/10/26 03:39:26;;;;;;;0.70;0.70;;;10.40;99.90;;;;;;5054223;28;20028;-67
2021/10/26 03:41:52;;;;;;;0.08;0.08;;;10.40;99.90;;;;;;5053039;28;20496;-66
2021/10/26 03:44:17;;;;;;;1.25;0.75;;;10.40;99.90;;;;;;5054242;28;20036;-66
2021/10/26 03:46:43;;;;;;;1.40;1.30;;;10.40;99.90;;;;;;5054000;28;20041;-67
2021/10/26 03:49:09;;;;;;;0.00;0.00;;;10.50;99.90;;;;;;5020343;28;20530;-66
2021/10/26 03:51:35;;;;;;;0.25;0.25;;;10.50;99.90;;;;;;5050661;28;20042;-66
2021/10/26 03:54:02;;;;;;;0.57;0.57;;;10.50;99.90;;;;;;5041558;28;20042;-66
2021/10/26 03:56:28;;;;;;;0.90;0.90;;;10.60;99.90;;;;;;5033855;28;20022;-67
2021/10/26 03:58:55;;;;;;;0.10;0.10;;;10.50;99.90;;;;;;5042390;28;20055;-67
2021/10/26 04:01:21;;;;;;;1.17;1.10;;;10.60;99.90;;;;;;5053382;28;20087;-62
2021/10/26 04:03:47;;;;;;;1.42;1.33;;;10.50;99.90;;;;;;5066809;28;20469;-64
2021/10/26 04:06:16;;;;;;;0.28;0.28;;;10.50;99.90;;;;;;5053502;28;20041;-64
2021/10/26 04:11:22;;;;;;;0.57;0.57;;;10.50;99.90;;;;;;5053479;28;20037;-63
2021/10/26 04:13:49;;;;;;;2.50;0.82;;;10.50;99.90;;;;;;5067814;28;20060;-63
2021/10/26 04:16:15;;;;;;;0.40;0.40;;;10.50;99.90;;;;;;5052056;28;20072;-63
2021/10/26 04:18:42;;;;;;;0.75;0.75;;;10.50;99.90;;;;;;5053464;28;20045;-62
2021/10/26 04:21:09;;;;;;;9.10;1.52;;;10.50;99.90;;;;;;5068767;28;20048;-65
2021/10/26 04:23:35;;;;;;;0.00;0.00;;;10.50;99.90;;;;;;5072063;28;20515;-65
2021/10/26 04:26:03;;;;;;;0.00;0.00;;;10.50;99.90;;;;;;5072092;28;20068;-64
2021/10/26 04:28:29;;;;;;;0.40;0.40;;;10.60;99.90;;;;;;5072189;28;20047;-65
2021/10/26 04:30:58;;;;;;;0.00;0.00;;;10.60;99.90;;;;;;5073076;28;20037;-63
2021/10/26 04:33:23;;;;;;;0.00;0.00;;;10.60;99.90;;;;;;5058346;28;20090;-63
2021/10/26 04:35:49;;;;;;;0.10;0.10;;;10.60;99.90;;;;;;5052804;28;20032;-63
2021/10/26 04:38:15;;;;;;;0.85;0.85;;;10.60;99.90;;;;;;5068132;28;20033;-63
2021/10/26 04:40:41;;;;;;;0.10;0.10;;;10.60;99.90;;;;;;5052654;28;20043;-63
2021/10/26 04:43:07;;;;;;;0.75;0.75;;;10.60;99.90;;;;;;5053016;28;20025;-63
2021/10/26 04:45:33;;;;;;;0.00;0.00;;;10.60;99.90;;;;;;5053143;28;20155;-63
2021/10/26 04:47:59;;;;;;;1.17;0.63;;;10.70;99.90;;;;;;5068281;28;20029;-63
2021/10/26 04:50:30;;;;;;;4.60;2.45;;;10.70;99.90;;;;;;5068333;28;20476;-64
2021/10/26 04:52:56;;;;;;;1.67;1.13;;;10.70;99.90;;;;;;5067870;28;20070;-65
2021/10/26 04:55:22;;;;;;;0.00;0.00;;;10.70;99.90;;;;;;5071336;28;20420;-64
2021/10/26 04:57:48;;;;;;;0.10;0.10;;;10.70;99.90;;;;;;5072675;28;20040;-64
2021/10/26 05:00:14;;;;;;;3.00;0.57;;;10.70;99.90;;;;;;5072092;28;20121;-64
2021/10/26 05:02:40;;;;;;;0.08;0.08;;;10.70;99.90;;;;;;5071324;28;20485;-63
2021/10/26 05:05:07;;;;;;;0.10;0.10;;;10.70;99.90;;;;;;5071417;28;20035;-64
2021/10/26 05:07:34;;;;;;;0.08;0.08;;;10.70;99.90;;;;;;5072422;28;20029;-64
2021/10/26 05:10:01;;;;;;;0.10;0.10;;;10.70;99.90;;;;;;5071011;28;20030;-64
2021/10/26 05:12:27;;;;;;;0.10;0.10;;;10.70;99.90;;;;;;5072498;28;20145;-64
2021/10/26 05:14:53;;;;;;;0.38;0.35;;;10.70;99.90;;;;;;5072529;28;20050;-64
2021/10/26 05:17:21;;;;;;;0.88;0.70;;;10.70;99.90;;;;;;5071129;28;20033;-65
2021/10/26 05:19:50;;;;;;;0.20;0.20;;;10.60;99.90;;;;;;5072025;28;20048;-65
2021/10/26 05:22:18;;;;;;;0.10;0.10;;;10.70;99.90;;;;;;5055061;28;20548;-65
2021/10/26 05:24:44;;;;;;;0.30;0.30;;;10.60;99.90;;;;;;5059029;28;20033;-65
2021/10/26 05:27:11;;;;;;;0.10;0.10;;;10.70;99.90;;;;;;5047194;28;20035;-63
2021/10/26 05:29:40;;;;;;;0.32;0.32;;;10.70;99.90;;;;;;5038209;28;20029;-63
2021/10/26 05:32:08;;;;;;;0.75;0.75;;;10.80;99.90;;;;;;5046503;28;20047;-64
2021/10/26 05:34:38;;;;;;;0.00;0.00;;;10.90;99.90;;;;;;5046279;28;20037;-63
2021/10/26 05:37:06;;;;;;;0.30;0.30;;;10.80;99.90;;;;;;5057059;28;20076;-65
2021/10/26 05:39:32;;;;;;;0.08;0.08;;;10.70;99.90;;;;;;5052211;28;20029;-63
2021/10/26 05:41:59;;;;;;;0.25;0.25;;;10.70;99.90;;;;;;5052174;28;20033;-64
2021/10/26 05:44:25;;;;;;;0.63;0.63;;;10.70;99.90;;;;;;5067821;28;20465;-64
2021/10/26 05:46:50;;;;;;;0.40;0.40;;;10.70;99.90;;;;;;5067939;28;20037;-65
2021/10/26 05:49:16;;;;;;;0.52;0.52;;;10.60;99.90;;;;;;5068359;28;20477;-63
2021/10/26 05:51:42;;;;;;;0.40;0.40;;;10.60;99.90;;;;;;5073318;28;20035;-62
2021/10/26 05:54:08;;;;;;;0.20;0.20;;;10.70;99.90;;;;;;5058240;28;20116;-64
2021/10/26 05:56:34;;;;;;;0.68;0.68;;;10.60;99.90;;;;;;5052647;28;20458;-62
2021/10/26 05:59:00;;;;;;;0.73;0.73;;;10.70;99.90;;;;;;5052875;28;20065;-63
2021/10/26 06:01:25;;;;;;;0.43;0.43;;;10.70;99.90;;;;;;5052524;28;20528;-63
2021/10/26 06:03:51;;;;;;;0.75;0.70;;;10.90;99.90;;;;;;5052989;28;20036;-63
2021/10/26 06:06:17;;;;;;;2.28;0.90;;;10.80;99.90;;;;;;5051029;28;20463;-63
2021/10/26 06:08:44;;;;;;;0.38;0.38;;;10.90;99.90;;;;;;5052493;28;20076;-63
2021/10/26 06:11:17;;;;;;;0.30;0.30;;;11.00;99.90;;;;;;5052074;28;20486;-64
2021/10/26 06:13:46;;;;;;;0.60;0.60;;;11.00;99.90;;;;;;5067177;28;20041;-63
2021/10/26 06:16:11;;;;;;;0.10;0.10;;;10.90;99.90;;;;;;5051725;28;20029;-63
2021/10/26 06:18:37;;;;;;;0.60;0.60;;;11.10;99.90;;;;;;5050585;28;20040;-63
2021/10/26 06:21:03;;;;;;;0.95;0.90;;;11.00;99.90;;;;;;5051254;28;20080;-64
2021/10/26 06:23:30;;;;;;;1.80;0.73;;;10.90;99.90;;;;;;5051599;28;20033;-63
2021/10/26 06:25:59;;;;;;;1.50;1.33;;;11.00;99.90;;;;;;5051470;28;20037;-63
2021/10/26 06:28:26;;;;;;;0.05;0.05;;;10.90;99.90;;;;;;5051522;28;20074;-64
2021/10/26 06:30:52;;;;;;;0.10;0.10;;;10.90;99.90;;;;;;5047700;28;20030;-65
2021/10/26 06:33:18;;;;;;;0.38;0.38;;;11.00;99.90;;;;;;5031190;28;20033;-63
2021/10/26 06:35:45;;;;;;;0.82;0.82;;;10.90;99.90;;;;;;5031516;28;20106;-64
2021/10/26 06:38:10;;;;;;;1.35;0.63;;;11.00;99.90;;;;;;5031324;28;20033;-64
2021/10/26 06:40:37;;;;;;;0.08;0.08;;;10.90;99.90;;;;;;5035325;28;20055;-64
2021/10/26 06:43:03;;;;;;;0.57;0.57;;;10.90;99.90;;;;;;5035114;28;20040;-64
2021/10/26 06:45:28;;;;;;;0.47;0.47;;;10.90;99.90;;;;;;5035066;28;20029;-64
2021/10/26 06:47:54;;;;;;;0.68;0.68;;;10.90;99.90;;;;;;5035289;28;20041;-64
2021/10/26 06:50:20;;;;;;;0.47;0.47;;;10.90;99.90;;;;;;5050430;28;20033;-64
2021/10/26 06:52:46;;;;;;;0.20;0.20;;;10.90;99.90;;;;;;5050229;28;20120;-64
2021/10/26 06:55:18;;;;;;;1.98;1.30;;;10.90;99.90;;;;;;5035056;28;20109;-64
2021/10/26 06:57:46;;;;;;;0.38;0.38;;;10.80;99.90;;;;;;5050693;28;20501;-64
2021/10/26 07:00:14;;;;;;;0.25;0.25;;;10.80;99.90;;;;;;5049876;28;20109;-64
2021/10/26 07:02:52;;;;;;;2.72;1.35;;;10.80;99.90;;;;;;5050242;28;20049;-64
2021/10/26 07:05:21;;;;;;;0.20;0.20;;;10.90;99.90;;;;;;5034792;28;20025;-64
2021/10/26 07:07:47;;;;;;;0.63;0.63;;;11.00;99.90;;;;;;5034908;28;20037;-63
2021/10/26 07:10:14;;;;;;;0.60;0.60;;;10.90;99.90;;;;;;5034906;28;20025;-63
2021/10/26 07:12:41;;;;;;;3.30;1.02;;;11.10;99.90;;;;;;5034616;28;20360;-62
2021/10/26 07:15:09;;;;;;;0.03;0.03;;;11.10;99.90;;;;;;5034669;28;20032;-62
2021/10/26 07:17:39;;;;;;;0.00;0.00;;;11.10;99.90;;;;;;5050176;28;20048;-62
2021/10/26 07:20:09;;;;;;;0.00;0.00;;;11.10;99.90;;;;;;5034368;28;20045;-63
2021/10/26 07:22:35;;;;;;;0.32;0.32;;;11.20;99.90;;;;;;5034577;28;20029;-63
2021/10/26 07:25:06;;;;;;;0.28;0.28;;;11.20;99.90;;;;;;5034361;28;20033;-63
2021/10/26 07:27:33;;;;;;;0.85;0.85;;;11.10;99.90;;;;;;5034365;28;20433;-63
2021/10/26 07:29:59;;;;;;;0.40;0.40;;;11.10;99.90;;;;;;5034786;28;20044;-63
2021/10/26 07:32:26;;;;;;;1.23;0.98;;;11.10;99.90;;;;;;5034204;28;20076;-63
2021/10/26 07:34:52;;;;;;;0.25;0.22;;;11.20;99.90;;;;;;5034701;28;20036;-62
2021/10/26 07:37:25;;;;;;;2.28;1.25;;;11.20;99.90;;;;;;5034052;28;20036;-62
2021/10/26 07:39:52;;;;;;;0.93;0.93;;;11.10;99.90;;;;;;5049676;28;20029;-63
2021/10/26 07:42:20;;;;;;;12.13;1.55;;;11.20;99.90;;;;;;5049259;28;20037;-64
2021/10/26 07:44:51;;;;;;;2.05;0.95;;;11.20;99.90;;;;;;5034306;28;20033;-64
2021/10/26 07:47:20;;;;;;;2.28;0.75;;;11.10;99.90;;;;;;5033860;28;20045;-63
2021/10/26 07:49:48;;;;;;;0.90;0.90;;;11.30;99.90;;;;;;5049052;28;20025;-64
2021/10/26 07:52:17;;;;;;;0.10;0.10;;;11.30;99.90;;;;;;5046157;28;20037;-64
2021/10/26 07:54:52;;;;;;;0.70;0.70;;;11.40;99.90;;;;;;5054236;28;20033;-63
2021/10/26 07:57:23;;;;;;;0.60;0.55;;;11.30;99.90;;;;;;5068973;28;20027;-64
2021/10/26 07:59:50;;;;;;;0.65;0.65;;;11.30;99.90;;;;;;5069010;28;20037;-64
2021/10/26 08:02:17;;;;;;;0.13;0.13;;;11.30;99.90;;;;;;5068953;28;20037;-64
2021/10/26 08:04:45;;;;;;;1.75;0.68;;;11.30;99.90;;;;;;5068670;28;20040;-64
2021/10/26 08:07:12;;;;;;;1.20;0.90;;;11.30;99.90;;;;;;5052615;28;20040;-64
2021/10/26 08:09:38;;;;;;;0.60;0.60;;;11.40;99.90;;;;;;5035760;28;20037;-64
2021/10/26 08:12:05;;;;;;;1.27;1.17;;;11.50;99.90;;;;;;5052200;28;20116;-64
2021/10/26 08:14:31;;;;;;;0.10;0.10;;;11.60;99.90;;;;;;5035843;28;20049;-64
2021/10/26 08:16:57;;;;;;;1.92;1.67;;;11.60;99.90;;;;;;5053539;28;20029;-64
2021/10/26 08:19:23;;;;;;;0.73;0.73;;;11.60;99.90;;;;;;5053465;28;20036;-62
2021/10/26 08:21:49;;;;;;;1.05;1.00;;;11.60;99.90;;;;;;5052848;28;20508;-64
2021/10/26 08:24:20;;;;;;;0.98;0.95;;;11.70;99.90;;;;;;5053099;28;20086;-64
2021/10/26 08:26:56;;;;;;;0.30;0.30;;;11.70;99.90;;;;;;5053247;28;20490;-63
2021/10/26 08:34:50;;;;;;;0.10;0.10;;;11.80;99.90;;;;;;5053199;28;20068;-63
2021/10/26 08:37:18;;;;;;;0.28;0.28;;;11.90;99.90;;;;;;5068391;28;20037;-63
2021/10/26 08:39:46;;;;;;;0.13;0.13;;;11.90;99.90;;;;;;5052898;28;20048;-63
2021/10/26 08:42:17;;;;;;;4.03;2.47;;;12.00;99.90;;;;;;5051639;28;20113;-63
2021/10/26 08:44:43;;;;;;;0.70;0.63;;;11.90;99.90;;;;;;5035367;28;20075;-62
2021/10/26 08:47:12;;;;;;;0.28;0.28;;;12.00;99.90;;;;;;5051887;28;20045;-63
2021/10/26 08:49:38;;;;;;;1.20;1.17;;;12.00;99.90;;;;;;5051321;28;20021;-63
2021/10/26 08:52:07;;;;;;;0.30;0.30;;;12.10;99.90;;;;;;5051490;28;20120;-64
2021/10/26 08:54:34;;;;;;;0.00;0.00;;;12.10;99.90;;;;;;5052612;28;20091;-64
2021/10/26 08:57:01;;;;;;;0.70;0.70;;;12.20;99.90;;;;;;5052922;28;20064;-64
2021/10/26 08:59:26;;;;;;;0.10;0.10;;;12.40;99.90;;;;;;5067891;28;20044;-64
2021/10/26 09:01:58;;;;;;;0.65;0.65;;;12.40;99.90;;;;;;5051778;28;20033;-64
2021/10/26 09:04:30;;;;;;;;;;;12.50;99.90;;;;;;5068247;28;20145;-64
2021/10/26 09:06:59;;;;;;;0.00;0.00;;;12.60;99.90;;;;;;5051388;28;19912;-64
2021/10/26 09:09:26;;;;;;;0.70;0.45;;;12.70;99.90;;;;;;5067792;28;20493;-64
2021/10/26 09:17:30;;;;;;;0.10;0.10;;;12.90;99.90;;;;;;5052313;28;19913;-64
2021/10/26 09:20:01;;;;;;;0.43;0.43;;;12.90;99.90;;;;;;5050913;28;20056;-64
2021/10/26 09:22:29;;;;;;;0.35;0.35;;;12.90;99.90;;;;;;5051915;28;20037;-64
2021/10/26 09:24:57;;;;;;;0.10;0.10;;;13.00;99.90;;;;;;5051166;28;20076;-64
2021/10/26 09:27:26;;;;;;;0.32;0.32;;;13.20;99.90;;;;;;5050825;28;20422;-64
2021/10/26 09:29:57;;;;;;;0.35;0.35;;;13.20;99.90;;;;;;5052421;28;20489;-64
2021/10/26 09:32:33;;;;;;;1.33;1.23;;;13.20;99.90;;;;;;5052395;28;20033;-64
2021/10/26 09:35:09;;;;;;;0.75;0.75;;;13.30;99.90;;;;;;5051153;28;20033;-64
2021/10/26 09:37:38;;;;;;;0.30;0.30;;;13.30;99.90;;;;;;5052017;28;20158;-64
2021/10/26 09:40:06;;;;;;;0.75;0.75;;;13.20;99.90;;;;;;5051984;28;20032;-64
2021/10/26 09:42:56;;;;;;;0.38;0.38;;;13.20;99.90;;;;;;5052239;28;20041;-64
2021/10/26 09:45:28;;;;;;;0.22;0.22;;;13.10;99.90;;;;;;5051124;28;20025;-64
2021/10/26 09:48:05;;;;;;;1.10;0.85;;;13.20;99.90;;;;;;5051854;28;20036;-64
2021/10/26 09:50:33;;;;;;;0.00;0.00;;;13.20;99.90;;;;;;5051755;28;20100;-64
2021/10/26 09:53:06;;;;;;;0.20;0.20;;;13.30;99.90;;;;;;5067058;28;20037;-63
2021/10/26 09:55:45;;;;;;;0.20;0.20;;;13.40;99.90;;;;;;5052297;28;20264;-63
2021/10/26 09:58:17;;;;;;;0.00;0.00;;;13.70;99.90;;;;;;5066737;28;20032;-64
2021/10/26 10:00:46;;;;;;;1.17;0.68;;;14.10;99.90;;;;;;5050458;28;20063;-64
2021/10/26 10:03:23;;;;;;;0.80;0.47;;;14.40;99.90;;;;;;5052063;28;20032;-66
2021/10/26 10:06:06;;;;;;;0.52;0.52;;;14.40;99.90;;;;;;5067379;28;20033;-65
2021/10/26 10:08:39;;;;;;;2.65;1.85;;;14.70;99.90;;;;;;5066198;28;20480;-66
2021/10/26 10:11:14;;;;;;;0.03;0.03;;;14.90;99.90;;;;;;5051896;28;20401;-65
2021/10/26 10:13:47;;;;;;;0.60;0.60;;;14.90;99.90;;;;;;5066874;28;20033;-65
2021/10/26 10:16:15;;;;;;;0.47;0.47;;;15.00;99.90;;;;;;5070168;28;20118;-63
2021/10/26 10:18:51;;;;;;;0.05;0.00;;;14.90;99.90;;;;;;5055022;28;20110;-63
2021/10/26 10:21:29;;;;;;;0.00;0.00;;;14.70;99.90;;;;;;5070600;28;20041;-63
2021/10/26 10:23:58;;;;;;;0.35;0.35;;;14.70;99.90;;;;;;5055408;28;20112;-63
2021/10/26 10:26:27;;;;;;;0.10;0.10;;;14.70;99.90;;;;;;5070354;28;20033;-64
2021/10/26 10:28:55;;;;;;;0.10;0.10;;;14.60;99.90;;;;;;5054492;28;20040;-64
2021/10/26 10:31:25;;;;;;;0.00;0.00;;;14.50;99.90;;;;;;5053173;28;20036;-64
2021/10/26 10:33:57;;;;;;;0.63;0.50;;;14.60;99.90;;;;;;5069453;28;20040;-64
2021/10/26 10:36:24;;;;;;;0.73;0.73;;;14.60;99.90;;;;;;5068930;28;20083;-64
2021/10/26 10:39:06;;;;;;;0.30;0.30;;;14.90;99.90;;;;;;5069809;28;20039;-64
2021/10/26 10:41:36;;;;;;;0.00;0.00;;;15.70;99.90;;;;;;5069912;28;20048;-63
2021/10/26 10:44:29;;;;;;;0.10;0.10;;;15.70;99.90;;;;;;5070630;28;20539;-63
2021/10/26 10:46:59;;;;;;;0.00;0.00;;;15.70;99.90;;;;;;5067573;28;20044;-63
2021/10/26 10:49:34;;;;;;;0.95;0.95;;;15.30;99.90;;;;;;5069475;28;20112;-63
2021/10/26 10:52:05;;;;;;;0.17;0.17;;;15.30;99.90;;;;;;5054859;28;20045;-63
2021/10/26 10:57:32;;;;;;;0.15;0.15;;;15.00;99.90;;;;;;5054898;28;20031;-64
2021/10/26 11:00:26;;;;;;;0.00;0.00;;;15.20;99.90;;;;;;5054979;28;20115;-64
2021/10/26 11:02:57;;;;;;;0.00;0.00;;;15.40;99.90;;;;;;5054839;28;20076;-64
2021/10/26 11:05:44;;;;;;;0.20;0.20;;;16.20;99.90;;;;;;5070061;28;20029;-64
2021/10/26 11:08:36;;;;;;;0.13;0.13;;;16.40;99.90;;;;;;5054591;28;20589;-64
2021/10/26 11:11:03;;;;;;;0.38;0.38;;;15.80;99.90;;;;;;5067301;28;20393;-63
2021/10/26 11:13:37;;;;;;;0.20;0.20;;;15.90;99.90;;;;;;5054208;28;20492;-64
2021/10/26 11:16:09;;;;;;;0.25;0.25;;;16.10;99.90;;;;;;5054623;28;20219;-64
2021/10/26 11:18:41;;;;;;;0.47;0.25;;;16.30;99.90;;;;;;5070061;28;20037;-64
2021/10/26 11:21:37;;;;;;;0.13;0.13;;;16.70;99.90;;;;;;5054231;28;20080;-64
2021/10/26 11:24:06;;;;;;;2.75;1.20;;;17.10;99.90;;;;;;5067200;28;20040;-64
2021/10/26 11:26:37;;;;;;;0.00;0.00;;;16.50;99.90;;;;;;5068404;28;20033;-64
2021/10/26 11:29:27;;;;;;;0.30;0.17;;;16.30;99.90;;;;;;5054424;28;20108;-64
2021/10/26 11:31:53;;;;;;;0.03;0.03;;;16.10;99.90;;;;;;5054384;28;20036;-64
2021/10/26 11:34:26;;;;;;;0.00;0.00;;;15.80;99.90;;;;;;5069275;28;20025;-64
2021/10/26 11:37:02;;;;;;;0.00;0.00;;;15.60;99.90;;;;;;5054413;28;20037;-64
2021/10/26 11:39:28;;;;;;;0.43;0.30;;;15.60;99.90;;;;;;5069173;28;20390;-64
2021/10/26 11:41:58;;;;;;;0.08;0.08;;;15.60;99.90;;;;;;5054084;28;20044;-64
2021/10/26 11:44:24;;;;;;;0.32;0.32;;;15.40;99.90;;;;;;5051091;28;20081;-64
2021/10/26 11:46:51;;;;;;;0.00;0.00;;;15.20;99.90;;;;;;5069619;28;20425;-64
2021/10/26 11:49:25;;;;;;;4.47;0.93;;;15.40;99.90;;;;;;5054366;28;20371;-64
2021/10/26 11:51:58;;;;;;;0.10;0.10;;;15.90;99.90;;;;;;5053822;28;20040;-64
2021/10/26 11:54:37;;;;;;;1.38;0.32;;;16.50;99.90;;;;;;5068884;28;20151;-64
2021/10/26 11:57:11;;;;;;;0.00;0.00;;;17.30;99.90;;;;;;5052415;28;20041;-64
2021/10/26 11:59:43;;;;;;;1.00;0.30;;;18.40;99.90;;;;;;5053918;28;20027;-64
2021/10/26 12:02:17;;;;;;;0.00;0.00;;;19.60;99.90;;;;;;5052315;28;20037;-64
2021/10/26 12:04:58;;;;;;;0.00;0.00;;;20.50;99.80;;;;;;5052964;28;20041;-64
2021/10/26 12:07:27;;;;;;;0.00;0.00;;;19.70;99.40;;;;;;5053606;28;20071;-64
2021/10/26 12:10:05;;;;;;;0.75;0.75;;;18.40;99.90;;;;;;5052244;28;20417;-64
2021/10/26 12:12:34;;;;;;;3.85;0.43;;;18.60;99.90;;;;;;5053259;28;20037;-64
2021/10/26 12:15:10;;;;;;;0.00;0.00;;;19.10;99.90;;;;;;5052347;28;20025;-64
2021/10/26 12:17:35;;;;;;;0.70;0.63;;;20.00;99.90;;;;;;5053421;28;20037;-64
2021/10/26 12:20:06;;;;;;;0.10;0.10;;;20.40;98.70;;;;;;5053027;28;20049;-64
2021/10/26 12:22:43;;;;;;;0.00;0.00;;;19.90;98.50;;;;;;5052765;28;20029;-65
2021/10/26 12:25:21;;;;;;;0.22;0.22;;;19.90;98.00;;;;;;5051943;28;20033;-64
2021/10/26 12:27:58;;;;;;;0.10;0.03;;;18.80;99.90;;;;;;5052880;28;20104;-64
2021/10/26 12:30:35;;;;;;;0.35;0.20;;;18.50;99.90;;;;;;5051598;28;20055;-64
2021/10/26 12:33:06;;;;;;;0.47;0.47;;;18.00;99.90;;;;;;5052978;28;20036;-64
2021/10/26 12:35:52;;;;;;;14.50;0.52;;;17.50;99.90;;;;;;5051327;28;20105;-64
2021/10/26 12:38:36;;;;;;;0.00;0.00;;;17.10;99.90;;;;;;5052716;28;20037;-63
2021/10/26 12:41:17;;;;;;;0.00;0.00;;;16.80;99.90;;;;;;5051485;28;20520;-64
2021/10/26 12:43:45;;;;;;;;;;;16.70;99.90;;;;;;5053162;28;20059;-65
2021/10/26 12:46:23;;;;;;;0.98;0.90;;;17.10;99.90;;;;;;5052925;28;19923;-64
2021/10/26 12:48:52;;;;;;;0.00;0.00;;;17.50;99.90;;;;;;5053075;28;20060;-64
2021/10/26 12:51:22;;;;;;;0.00;0.00;;;17.40;99.90;;;;;;5051687;28;20037;-64
2021/10/26 12:53:48;;;;;;;0.00;0.00;;;17.30;99.90;;;;;;5052981;28;20122;-64
2021/10/26 12:56:31;;;;;;;0.28;0.25;;;17.20;99.90;;;;;;5052932;28;20037;-64
2021/10/26 12:58:57;;;;;;;0.00;0.00;;;17.00;99.90;;;;;;5051582;28;20112;-63
2021/10/26 13:01:30;;;;;;;0.17;0.17;;;17.00;99.90;;;;;;5052193;28;20155;-63
2021/10/26 13:04:16;;;;;;;0.08;0.08;;;16.80;99.90;;;;;;5051545;28;20071;-63
2021/10/26 13:07:03;;;;;;;0.40;0.17;;;17.00;99.90;;;;;;5051676;28;20033;-63
2021/10/26 13:09:52;;;;;;;11.20;0.85;;;17.30;99.90;;;;;;5050037;28;20033;-63
2021/10/26 13:12:28;;;;;;;0.00;0.00;;;17.10;99.90;;;;;;5067540;28;20024;-63
2021/10/26 13:15:04;;;;;;;0.60;0.57;;;17.20;99.90;;;;;;5052649;28;20036;-62